Time;durP1;ratioP1;P1;durP2;ratioP2;P2;SDS_P1;SDS_P2;PMS_P1;PMS_P2;Temp;Humidity;BMP_temperature;BMP_pressure;BME280_temperature;BME280_humidity;BME280_pressure;Samples;Min_cycle;Max_cycle;Signal;HPM_P1;HPM_P2
2023/11/29 00:02:35;;;;;;;32.50;20.02;;;-1.50;99.90;;;;;;6288059;22;20038;-82
2023/11/29 00:05:28;;;;;;;30.52;19.38;;;-1.40;99.90;;;;;;6289067;22;20038;-81
2023/11/29 00:08:27;;;;;;;37.58;21.13;;;-1.40;99.90;;;;;;6284539;22;20043;-81
2023/11/29 00:11:14;;;;;;;30.38;19.95;;;-1.40;99.90;;;;;;6276739;22;20023;-82
2023/11/29 00:14:01;;;;;;;32.17;19.33;;;-1.40;99.90;;;;;;6273514;22;20067;-82
2023/11/29 00:16:51;;;;;;;31.58;19.17;;;-1.50;99.90;;;;;;6275285;22;20437;-81
2023/11/29 00:19:41;;;;;;;;;;;-1.40;99.90;;;;;;6276004;22;20086;-82
2023/11/29 00:22:31;;;;;;;34.33;19.20;;;-1.40;99.90;;;;;;6275876;22;19951;-82
2023/11/29 00:25:20;;;;;;;33.88;19.23;;;-1.40;99.90;;;;;;6275251;22;20093;-81
2023/11/29 00:28:08;;;;;;;32.72;19.83;;;-1.30;99.90;;;;;;6276536;22;20435;-82
2023/11/29 00:30:56;;;;;;;32.83;19.20;;;-1.30;99.90;;;;;;6276790;22;20031;-81
2023/11/29 00:33:45;;;;;;;33.40;20.25;;;-1.30;99.90;;;;;;6274046;22;20020;-80
2023/11/29 00:36:32;;;;;;;33.38;20.30;;;-1.30;99.90;;;;;;6278943;22;20031;-80
2023/11/29 00:39:22;;;;;;;32.05;19.77;;;-1.20;99.90;;;;;;6277058;22;20055;-81
2023/11/29 00:42:10;;;;;;;35.75;19.35;;;-1.20;99.90;;;;;;6275628;22;20030;-81
2023/11/29 00:44:57;;;;;;;36.63;20.52;;;-1.20;99.90;;;;;;6275310;22;20095;-82
2023/11/29 00:47:44;;;;;;;29.88;19.35;;;-1.20;99.90;;;;;;6272846;22;20263;-81
2023/11/29 00:50:31;;;;;;;32.00;18.17;;;-1.20;99.90;;;;;;6271342;22;20030;-82
2023/11/29 00:53:19;;;;;;;33.17;18.85;;;-1.20;99.90;;;;;;6273483;22;20030;-82
2023/11/29 00:56:07;;;;;;;31.10;18.52;;;-1.20;99.90;;;;;;6273234;22;20042;-82
2023/11/29 00:58:54;;;;;;;30.67;18.90;;;-1.20;99.90;;;;;;6274879;22;20077;-82
2023/11/29 01:01:41;;;;;;;33.00;19.20;;;-1.30;99.90;;;;;;6274339;22;20063;-82
2023/11/29 01:04:31;;;;;;;31.67;18.63;;;-1.20;99.90;;;;;;6273118;22;20201;-81
2023/11/29 01:07:20;;;;;;;33.08;19.23;;;-1.30;99.90;;;;;;6274077;22;20032;-81
2023/11/29 01:10:08;;;;;;;30.30;18.13;;;-1.30;99.90;;;;;;6273067;22;20329;-81
2023/11/29 01:12:58;;;;;;;31.70;18.95;;;-1.30;99.90;;;;;;6276011;22;20024;-78
2023/11/29 01:15:47;;;;;;;32.55;17.90;;;-1.30;99.90;;;;;;6275751;22;20023;-82
2023/11/29 01:18:36;;;;;;;30.30;17.77;;;-1.30;99.90;;;;;;6274849;22;20024;-81
2023/11/29 01:21:27;;;;;;;30.73;18.33;;;-1.30;99.90;;;;;;6274626;22;20378;-82
2023/11/29 01:24:21;;;;;;;28.80;16.52;;;-1.30;99.90;;;;;;6274036;22;20059;-78
2023/11/29 01:27:08;;;;;;;31.08;18.05;;;-1.40;99.90;;;;;;6272698;22;20071;-81
2023/11/29 01:29:58;;;;;;;30.30;16.05;;;-1.40;99.90;;;;;;6277179;22;20020;-81
2023/11/29 01:32:46;;;;;;;30.27;15.90;;;-1.40;99.90;;;;;;6275110;22;20082;-81
2023/11/29 01:35:33;;;;;;;29.02;16.65;;;-1.40;99.90;;;;;;6272880;22;20032;-81
2023/11/29 01:38:21;;;;;;;31.83;16.65;;;-1.50;99.90;;;;;;6273288;22;20024;-80
2023/11/29 01:41:08;;;;;;;28.20;15.93;;;-1.70;99.90;;;;;;6272702;22;20094;-82
2023/11/29 01:43:55;;;;;;;24.17;14.63;;;-1.80;99.90;;;;;;6275154;22;20337;-81
2023/11/29 01:46:43;;;;;;;26.20;15.27;;;-1.80;99.90;;;;;;6274290;22;20085;-82
2023/11/29 01:49:32;;;;;;;27.02;14.43;;;-1.80;99.90;;;;;;6272801;22;20023;-82
2023/11/29 01:52:20;;;;;;;23.65;14.13;;;-1.80;99.90;;;;;;6273109;22;20034;-81
2023/11/29 01:55:10;;;;;;;22.95;13.07;;;-1.80;99.90;;;;;;6274123;22;20051;-83
2023/11/29 01:57:57;;;;;;;25.52;13.30;;;-1.70;99.90;;;;;;6276595;22;20031;-81
2023/11/29 02:00:44;;;;;;;21.25;12.05;;;-1.70;99.90;;;;;;6273401;22;20028;-79
2023/11/29 02:03:32;;;;;;;20.75;12.52;;;-1.80;99.90;;;;;;6278057;22;20310;-81
2023/11/29 02:06:20;;;;;;;20.45;11.70;;;-1.90;99.90;;;;;;6274876;22;20042;-81
2023/11/29 02:09:12;;;;;;;21.02;12.95;;;-2.00;99.90;;;;;;6275567;22;20027;-81
2023/11/29 02:12:03;;;;;;;14.75;9.38;;;-2.10;99.90;;;;;;6275844;22;20418;-81
2023/11/29 02:14:54;;;;;;;21.83;12.50;;;-2.20;99.90;;;;;;6272914;22;20027;-81
2023/11/29 02:17:44;;;;;;;24.13;13.65;;;-2.40;99.90;;;;;;6272584;22;20020;-81
2023/11/29 02:20:32;;;;;;;22.13;13.00;;;-2.50;99.90;;;;;;6274923;22;20042;-82
2023/11/29 02:24:00;;;;;;;24.50;13.25;;;-2.60;99.90;;;;;;6274961;22;20042;-81
2023/11/29 02:26:50;;;;;;;22.58;12.98;;;-2.80;99.90;;;;;;6275574;22;20059;-82
2023/11/29 02:29:40;;;;;;;22.98;13.13;;;-2.90;99.90;;;;;;6273060;22;20050;-81
2023/11/29 02:32:27;;;;;;;22.35;12.63;;;-3.00;99.90;;;;;;6274646;22;20027;-82
2023/11/29 02:35:15;;;;;;;21.60;13.32;;;-3.10;99.90;;;;;;6271345;22;20110;-81
2023/11/29 02:38:04;;;;;;;21.13;12.63;;;-3.10;99.90;;;;;;6272532;22;20105;-82
2023/11/29 02:40:54;;;;;;;27.80;14.20;;;-3.20;99.90;;;;;;6271203;22;20024;-80
2023/11/29 02:43:44;;;;;;;25.50;13.43;;;-3.30;99.90;;;;;;6271164;22;20028;-81
2023/11/29 02:46:32;;;;;;;24.38;13.65;;;-3.10;99.90;;;;;;6273509;22;20120;-81
2023/11/29 02:49:19;;;;;;;24.42;14.68;;;-3.00;99.90;;;;;;6271485;22;20050;-80
2023/11/29 02:52:06;;;;;;;31.38;15.68;;;-3.00;99.90;;;;;;6272214;22;20107;-82
2023/11/29 02:54:54;;;;;;;27.77;15.38;;;-3.00;99.90;;;;;;6274855;22;20024;-81
2023/11/29 02:57:41;;;;;;;30.50;17.40;;;-3.00;99.90;;;;;;6274682;22;20019;-82
2023/11/29 03:00:28;;;;;;;34.15;17.25;;;-2.90;99.90;;;;;;6273879;22;20034;-81
2023/11/29 03:03:15;;;;;;;33.25;16.77;;;-2.80;99.90;;;;;;6276214;22;20099;-81
2023/11/29 03:06:03;;;;;;;28.23;15.25;;;-2.80;99.90;;;;;;6274413;22;20023;-81
2023/11/29 03:08:50;;;;;;;29.05;15.50;;;-2.80;99.90;;;;;;6272878;22;20023;-81
2023/11/29 03:11:40;;;;;;;32.53;16.05;;;-2.80;99.90;;;;;;6275454;22;20028;-81
2023/11/29 03:14:28;;;;;;;31.05;16.20;;;-2.80;99.90;;;;;;6273974;22;20414;-80
2023/11/29 03:17:15;;;;;;;34.17;14.85;;;-2.90;99.90;;;;;;6272943;22;20024;-81
2023/11/29 03:20:03;;;;;;;29.27;15.18;;;-2.90;99.90;;;;;;6271821;22;20135;-81
2023/11/29 03:22:50;;;;;;;28.90;15.90;;;-2.90;99.90;;;;;;6274603;22;20034;-82
2023/11/29 03:25:38;;;;;;;27.73;14.65;;;-2.90;99.90;;;;;;6272554;22;20098;-81
2023/11/29 03:28:25;;;;;;;31.10;15.38;;;-2.90;99.90;;;;;;6274270;22;20107;-81
2023/11/29 03:31:15;;;;;;;26.35;13.85;;;-2.80;99.90;;;;;;6271894;22;20019;-79
2023/11/29 03:34:02;;;;;;;28.70;15.15;;;-2.70;99.90;;;;;;6272082;22;20031;-78
2023/11/29 03:36:49;;;;;;;25.33;13.93;;;-2.70;99.90;;;;;;6271873;22;20314;-81
2023/11/29 03:39:36;;;;;;;28.50;14.23;;;-2.70;99.90;;;;;;6271087;22;20024;-81
2023/11/29 03:42:26;;;;;;;26.90;14.90;;;-2.80;99.90;;;;;;6276455;22;20035;-80
2023/11/29 03:45:15;;;;;;;27.40;14.65;;;-2.80;99.90;;;;;;6276190;22;20038;-81
2023/11/29 03:48:03;;;;;;;27.90;14.60;;;-2.70;99.90;;;;;;6273875;22;20417;-81
2023/11/29 03:50:55;;;;;;;29.63;15.63;;;-2.70;99.90;;;;;;6275246;22;20524;-81
2023/11/29 03:53:42;;;;;;;28.00;15.40;;;-2.70;99.90;;;;;;6274005;22;20024;-81
2023/11/29 03:56:29;;;;;;;28.13;15.45;;;-2.60;99.90;;;;;;6277098;22;20306;-81
2023/11/29 03:59:19;;;;;;;26.70;15.43;;;-2.60;99.90;;;;;;6276941;22;20070;-81
2023/11/29 04:02:06;;;;;;;29.33;15.40;;;-2.60;99.90;;;;;;6274383;22;20024;-80
2023/11/29 04:04:53;;;;;;;28.25;15.38;;;-2.60;99.90;;;;;;6274512;22;20306;-81
2023/11/29 04:07:41;;;;;;;27.85;15.00;;;-2.60;99.90;;;;;;6274630;22;20023;-81
2023/11/29 04:10:31;;;;;;;34.70;16.65;;;-2.60;99.90;;;;;;6273040;22;20046;-81
2023/11/29 04:13:18;;;;;;;29.58;15.85;;;-2.60;99.90;;;;;;6276039;22;20023;-81
2023/11/29 04:16:06;;;;;;;31.73;15.85;;;-2.70;99.90;;;;;;6273829;22;20023;-81
2023/11/29 04:18:54;;;;;;;29.52;15.35;;;-2.70;99.90;;;;;;6275153;22;20024;-79
2023/11/29 04:21:41;;;;;;;31.88;15.38;;;-2.80;99.90;;;;;;6277748;22;20087;-81
2023/11/29 04:24:33;;;;;;;31.70;16.30;;;-2.80;99.90;;;;;;6277620;22;20066;-81
2023/11/29 04:27:20;;;;;;;32.57;16.07;;;-2.80;99.90;;;;;;6279869;22;20430;-80
2023/11/29 04:30:08;;;;;;;33.13;17.73;;;-2.80;99.90;;;;;;6287923;22;20079;-81
2023/11/29 04:32:55;;;;;;;31.92;17.08;;;-2.70;99.90;;;;;;6289307;22;20418;-81
2023/11/29 04:35:44;;;;;;;32.03;17.17;;;-2.60;99.90;;;;;;6290576;22;20024;-81
2023/11/29 04:38:32;;;;;;;32.97;16.40;;;-2.60;99.90;;;;;;6293909;22;20023;-81
2023/11/29 04:41:20;;;;;;;31.63;16.50;;;-2.60;99.90;;;;;;6294884;22;20046;-80
2023/11/29 04:44:09;;;;;;;31.40;16.58;;;-2.60;99.90;;;;;;6287392;22;20034;-80
2023/11/29 04:46:59;;;;;;;30.48;16.08;;;-2.60;99.90;;;;;;6289827;22;20055;-78
2023/11/29 04:49:49;;;;;;;32.40;16.85;;;-2.60;99.90;;;;;;6292273;22;20043;-81
2023/11/29 04:52:36;;;;;;;30.48;16.38;;;-2.50;99.90;;;;;;6289019;22;20031;-80
2023/11/29 04:55:23;;;;;;;31.45;15.77;;;-2.50;99.90;;;;;;6276830;22;20329;-80
2023/11/29 04:58:12;;;;;;;32.75;16.70;;;-2.50;99.90;;;;;;6272993;22;20037;-81
2023/11/29 05:00:59;;;;;;;33.50;17.27;;;-2.40;99.90;;;;;;6273998;22;20112;-81
2023/11/29 05:03:47;;;;;;;30.42;15.90;;;-2.40;99.90;;;;;;6271939;22;20034;-79
2023/11/29 05:06:34;;;;;;;35.50;16.30;;;-2.30;99.90;;;;;;6274430;22;20330;-78
2023/11/29 05:09:21;;;;;;;31.45;16.42;;;-2.30;99.90;;;;;;6274128;22;20103;-81
2023/11/29 05:12:09;;;;;;;31.98;17.20;;;-2.30;99.90;;;;;;6274084;22;20042;-81
2023/11/29 05:14:56;;;;;;;33.60;17.20;;;-2.20;99.90;;;;;;6273410;22;20042;-82
2023/11/29 05:17:43;;;;;;;28.10;14.65;;;-2.20;99.90;;;;;;6275114;22;20028;-80
2023/11/29 05:20:31;;;;;;;26.77;15.45;;;-2.20;99.90;;;;;;6272436;22;20050;-80
2023/11/29 05:23:18;;;;;;;28.65;15.43;;;-2.10;99.90;;;;;;6273950;22;20023;-82
2023/11/29 05:26:09;;;;;;;32.70;16.27;;;-2.10;99.90;;;;;;6273149;22;20043;-80
2023/11/29 05:29:02;;;;;;;30.95;16.75;;;-2.00;99.90;;;;;;6277372;22;20031;-82
2023/11/29 05:31:50;;;;;;;29.90;15.68;;;-2.00;99.90;;;;;;6279228;22;20306;-82
2023/11/29 05:34:38;;;;;;;29.05;15.77;;;-2.00;99.90;;;;;;6276463;22;20386;-82
2023/11/29 05:37:27;;;;;;;28.83;16.55;;;-1.90;99.90;;;;;;6278771;22;20019;-82
2023/11/29 05:40:15;;;;;;;27.63;15.85;;;-1.90;99.90;;;;;;6278045;22;20415;-82
2023/11/29 05:43:02;;;;;;;32.40;15.77;;;-1.90;99.90;;;;;;6271986;22;20034;-81
2023/11/29 05:45:49;;;;;;;28.30;16.80;;;-1.90;99.90;;;;;;6275042;22;20038;-80
2023/11/29 05:48:39;;;;;;;28.60;16.05;;;-1.90;99.90;;;;;;6273853;22;20055;-82
2023/11/29 05:51:27;;;;;;;27.00;15.40;;;-1.90;99.90;;;;;;6274517;22;20030;-82
2023/11/29 05:54:14;;;;;;;31.33;16.70;;;-2.00;99.90;;;;;;6274526;22;20023;-80
2023/11/29 05:57:01;;;;;;;30.02;15.90;;;-1.90;99.90;;;;;;6278055;22;20024;-82
2023/11/29 05:59:49;;;;;;;29.08;16.23;;;-1.90;99.90;;;;;;6275432;22;20299;-82
2023/11/29 06:02:37;;;;;;;32.05;16.45;;;-1.90;99.90;;;;;;6276082;22;20158;-84
2023/11/29 06:05:27;;;;;;;30.90;17.30;;;-1.80;99.90;;;;;;6275665;22;20023;-82
2023/11/29 06:08:14;;;;;;;28.98;16.13;;;-1.80;99.90;;;;;;6272875;22;20028;-80
2023/11/29 06:11:04;;;;;;;28.55;17.02;;;-1.80;99.90;;;;;;6273404;22;20023;-82
2023/11/29 06:13:51;;;;;;;28.27;16.85;;;-1.70;99.90;;;;;;6274936;22;20059;-81
2023/11/29 06:16:38;;;;;;;28.92;17.15;;;-1.70;99.90;;;;;;6272078;22;20302;-82
2023/11/29 06:19:26;;;;;;;30.08;16.65;;;-1.70;99.90;;;;;;6273076;22;20029;-81
2023/11/29 06:22:13;;;;;;;31.88;17.17;;;-1.70;99.90;;;;;;6270729;22;20031;-82
2023/11/29 06:25:00;;;;;;;27.85;16.45;;;-1.60;99.90;;;;;;6273712;22;20032;-82
2023/11/29 06:27:48;;;;;;;28.27;16.35;;;-1.60;99.90;;;;;;6270665;22;20366;-81
2023/11/29 06:30:35;;;;;;;25.73;16.25;;;-1.60;99.90;;;;;;6273299;22;20097;-80
2023/11/29 06:33:23;;;;;;;27.83;16.08;;;-1.50;99.90;;;;;;6277255;22;20035;-83
2023/11/29 06:36:10;;;;;;;28.38;16.08;;;-1.50;99.90;;;;;;6273239;22;20046;-82
2023/11/29 06:39:01;;;;;;;33.72;17.15;;;-1.50;99.90;;;;;;6273956;22;20020;-82
2023/11/29 06:41:49;;;;;;;29.17;17.35;;;-1.40;99.90;;;;;;6273890;22;20073;-81
2023/11/29 06:44:37;;;;;;;30.45;16.13;;;-1.40;99.90;;;;;;6271735;22;20027;-82
2023/11/29 06:47:24;;;;;;;30.25;17.73;;;-1.40;99.90;;;;;;6278255;22;20024;-83
2023/11/29 06:50:14;;;;;;;31.98;17.27;;;-1.50;99.90;;;;;;6268299;22;20028;-81
2023/11/29 06:53:03;;;;;;;25.60;15.88;;;-1.50;99.90;;;;;;6271473;22;20352;-81
2023/11/29 06:55:50;;;;;;;25.42;14.68;;;-1.40;99.90;;;;;;6272783;22;20031;-81
2023/11/29 06:58:38;;;;;;;23.27;13.60;;;-1.40;99.90;;;;;;6273140;22;20028;-82
2023/11/29 07:01:25;;;;;;;25.58;13.70;;;-1.30;99.90;;;;;;6270842;22;20027;-81
2023/11/29 07:04:13;;;;;;;21.92;13.98;;;-1.40;99.90;;;;;;6271784;22;20101;-81
2023/11/29 07:07:00;;;;;;;23.85;13.57;;;-1.30;99.90;;;;;;6274372;22;20070;-82
2023/11/29 07:09:49;;;;;;;20.90;12.43;;;-1.30;99.90;;;;;;6272939;22;20039;-82
2023/11/29 07:12:39;;;;;;;22.15;13.27;;;-1.30;99.90;;;;;;6274152;22;20026;-82
2023/11/29 07:15:29;;;;;;;22.08;13.45;;;-1.30;99.90;;;;;;6270566;22;20421;-80
2023/11/29 07:18:16;;;;;;;21.60;13.65;;;-1.30;99.90;;;;;;6274369;22;20058;-79
2023/11/29 07:21:07;;;;;;;20.10;12.77;;;-1.40;99.90;;;;;;6277357;22;20429;-82
2023/11/29 07:23:54;;;;;;;20.95;12.60;;;-1.40;99.90;;;;;;6271538;22;20039;-81
2023/11/29 07:26:42;;;;;;;20.75;13.07;;;-1.30;99.90;;;;;;6274776;22;20098;-82
2023/11/29 07:29:30;;;;;;;20.15;12.30;;;-1.30;99.90;;;;;;6275067;22;20047;-81
2023/11/29 07:32:27;;;;;;;21.85;13.05;;;-1.20;99.90;;;;;;6273539;22;20126;-81
2023/11/29 07:35:15;;;;;;;19.48;12.13;;;-1.20;99.90;;;;;;6277203;22;20030;-82
2023/11/29 07:38:05;;;;;;;18.17;11.43;;;-1.20;99.90;;;;;;6275041;22;20099;-82
2023/11/29 07:40:53;;;;;;;18.38;11.60;;;-1.10;99.90;;;;;;6274721;22;20024;-82
2023/11/29 07:43:41;;;;;;;18.38;12.50;;;-1.10;99.90;;;;;;6277037;22;20108;-83
2023/11/29 07:46:33;;;;;;;19.52;11.60;;;-1.10;99.90;;;;;;6272277;22;20023;-82
2023/11/29 07:49:20;;;;;;;19.25;12.40;;;-1.10;99.90;;;;;;6276181;22;20023;-82
2023/11/29 07:52:10;;;;;;;19.83;12.52;;;-1.10;99.90;;;;;;6274475;22;20021;-81
2023/11/29 07:54:58;;;;;;;19.65;11.57;;;-1.10;99.90;;;;;;6277036;22;20054;-81
2023/11/29 07:57:46;;;;;;;17.95;11.77;;;-1.00;99.90;;;;;;6274856;22;20051;-80
2023/11/29 08:00:34;;;;;;;18.17;11.27;;;-1.00;99.90;;;;;;6279961;22;20096;-82
2023/11/29 08:03:21;;;;;;;19.25;10.82;;;-1.00;99.90;;;;;;6279612;22;20286;-82
2023/11/29 08:06:11;;;;;;;17.23;11.50;;;-1.00;99.90;;;;;;6273704;22;20051;-79
2023/11/29 08:09:00;;;;;;;16.92;9.98;;;-0.90;99.90;;;;;;6278715;22;20028;-82
2023/11/29 08:11:47;;;;;;;23.02;10.80;;;-0.90;99.90;;;;;;6277806;22;20023;-82
2023/11/29 08:14:35;;;;;;;15.65;10.73;;;-0.90;99.90;;;;;;6276368;22;20027;-81
2023/11/29 08:17:22;;;;;;;17.52;11.38;;;-0.80;99.90;;;;;;6277273;22;20493;-82
2023/11/29 08:20:10;;;;;;;18.48;12.40;;;-0.80;99.90;;;;;;6276162;22;20107;-81
2023/11/29 08:22:58;;;;;;;18.00;11.48;;;-0.80;99.90;;;;;;6275844;22;20153;-81
2023/11/29 08:25:46;;;;;;;18.58;11.45;;;-0.80;99.90;;;;;;6277943;22;20437;-81
2023/11/29 08:28:34;;;;;;;18.63;10.93;;;-0.70;99.90;;;;;;6278243;22;20023;-82
2023/11/29 08:31:24;;;;;;;17.73;11.30;;;-0.70;99.90;;;;;;6276401;22;20019;-81
2023/11/29 08:34:11;;;;;;;14.77;10.52;;;-0.60;99.90;;;;;;6277828;22;20020;-81
2023/11/29 08:36:59;;;;;;;16.38;10.88;;;-0.60;99.90;;;;;;6277879;22;20388;-81
2023/11/29 08:39:49;;;;;;;15.98;9.85;;;-0.50;99.90;;;;;;6278684;22;20023;-81
2023/11/29 08:42:37;;;;;;;16.38;10.18;;;-0.50;99.90;;;;;;6279535;22;20027;-80
2023/11/29 08:45:25;;;;;;;15.57;9.20;;;-0.50;99.90;;;;;;6277537;22;20092;-80
2023/11/29 08:48:14;;;;;;;14.32;9.38;;;-0.50;99.90;;;;;;6275578;22;20051;-81
2023/11/29 08:51:06;;;;;;;17.83;9.85;;;-0.50;99.90;;;;;;6275656;22;20028;-80
2023/11/29 08:53:58;;;;;;;16.20;9.85;;;-0.50;99.90;;;;;;6278322;22;20027;-80
2023/11/29 08:56:46;;;;;;;13.55;9.40;;;-0.50;99.90;;;;;;6277039;22;20386;-81
2023/11/29 08:59:33;;;;;;;13.23;9.07;;;-0.50;99.90;;;;;;6278957;22;20047;-83
2023/11/29 09:02:24;;;;;;;12.82;8.77;;;-0.50;99.90;;;;;;6276331;22;20417;-81
2023/11/29 09:05:12;;;;;;;16.35;9.05;;;-0.50;99.90;;;;;;6275980;22;20024;-82
2023/11/29 09:08:01;;;;;;;14.18;9.05;;;-0.50;99.90;;;;;;6278029;22;20028;-80
2023/11/29 09:10:48;;;;;;;15.80;9.98;;;-0.50;99.90;;;;;;6273955;22;20103;-82
2023/11/29 09:13:37;;;;;;;13.90;9.50;;;-0.40;99.90;;;;;;6277206;22;20023;-81
2023/11/29 09:16:25;;;;;;;13.88;9.30;;;-0.40;99.90;;;;;;6275877;22;20032;-81
2023/11/29 09:19:12;;;;;;;11.13;8.55;;;-0.40;99.90;;;;;;6280020;22;20085;-82
2023/11/29 09:22:00;;;;;;;13.02;8.25;;;-0.30;99.90;;;;;;6278229;22;20450;-79
2023/11/29 09:24:49;;;;;;;11.48;8.50;;;-0.30;99.90;;;;;;6280189;22;20036;-82
2023/11/29 09:27:37;;;;;;;11.57;8.80;;;-0.30;99.90;;;;;;6272174;22;20097;-82
2023/11/29 09:30:25;;;;;;;12.70;8.30;;;-0.20;99.90;;;;;;6273415;22;20028;-81
2023/11/29 09:33:12;;;;;;;12.45;8.23;;;0.00;99.90;;;;;;6275967;22;20027;-81
2023/11/29 09:36:00;;;;;;;10.77;7.93;;;0.40;99.90;;;;;;6274205;22;20131;-80
2023/11/29 09:38:48;;;;;;;8.75;6.70;;;1.10;99.90;;;;;;6274083;22;20023;-82
2023/11/29 09:41:35;;;;;;;6.90;5.80;;;2.00;99.90;;;;;;6276300;22;20086;-80
2023/11/29 09:44:28;;;;;;;8.02;5.93;;;3.00;99.90;;;;;;6273451;22;20058;-82
2023/11/29 09:47:15;;;;;;;8.93;5.95;;;3.30;99.90;;;;;;6273699;22;20167;-81
2023/11/29 09:50:07;;;;;;;8.77;5.80;;;2.30;99.90;;;;;;6274626;22;20032;-82
2023/11/29 09:52:59;;;;;;;10.18;7.03;;;1.50;99.90;;;;;;6270730;22;20024;-81
2023/11/29 09:55:47;;;;;;;9.33;6.23;;;1.10;99.90;;;;;;6276256;22;20473;-82
2023/11/29 09:58:38;;;;;;;9.07;7.05;;;0.80;99.90;;;;;;6280573;22;20032;-82
2023/11/29 10:01:33;;;;;;;9.52;7.13;;;0.70;99.90;;;;;;6283453;22;20023;-82
2023/11/29 10:04:21;;;;;;;8.60;7.07;;;0.60;99.90;;;;;;6286597;22;20031;-82
2023/11/29 10:07:29;;;;;;;13.90;7.45;;;0.60;99.90;;;;;;6291006;22;20414;-82
2023/11/29 10:10:17;;;;;;;8.07;6.95;;;0.90;99.90;;;;;;6288853;22;20330;-81
2023/11/29 10:13:04;;;;;;;8.15;6.15;;;1.80;99.90;;;;;;6290000;22;20031;-78
2023/11/29 10:15:57;;;;;;;8.68;6.30;;;2.20;99.90;;;;;;6289321;22;20054;-80
2023/11/29 10:18:46;;;;;;;6.60;4.65;;;1.70;99.90;;;;;;6279083;22;20645;-82
2023/11/29 10:21:33;;;;;;;8.18;6.15;;;1.40;99.90;;;;;;6273267;22;20038;-81
2023/11/29 10:24:24;;;;;;;9.88;6.32;;;1.20;99.90;;;;;;6277023;22;20038;-81
2023/11/29 10:27:18;;;;;;;8.82;6.72;;;0.90;99.90;;;;;;6276518;22;20357;-81
2023/11/29 10:30:08;;;;;;;10.93;6.65;;;0.80;99.90;;;;;;6274702;22;20302;-81
2023/11/29 10:32:56;;;;;;;7.78;6.03;;;0.80;99.90;;;;;;6273058;22;20160;-82
2023/11/29 10:35:48;;;;;;;7.63;5.85;;;0.90;99.90;;;;;;6271704;22;20035;-81
2023/11/29 10:38:44;;;;;;;8.18;6.20;;;1.20;99.90;;;;;;6272302;22;20019;-81
2023/11/29 10:41:43;;;;;;;6.68;5.70;;;1.60;99.90;;;;;;6273094;22;20401;-82
2023/11/29 10:44:37;;;;;;;10.32;6.32;;;1.80;99.90;;;;;;6273322;22;20270;-82
2023/11/29 10:47:34;;;;;;;7.50;5.78;;;1.80;99.90;;;;;;6282655;22;20047;-82
2023/11/29 10:50:26;;;;;;;8.27;6.35;;;1.60;99.90;;;;;;6279556;22;20023;-81
2023/11/29 10:53:21;;;;;;;9.65;6.15;;;1.70;99.90;;;;;;6279098;22;20020;-81
2023/11/29 10:56:09;;;;;;;7.38;5.90;;;1.70;99.90;;;;;;6277093;22;20024;-81
2023/11/29 10:58:57;;;;;;;8.00;6.35;;;1.70;99.90;;;;;;6278085;22;20306;-81
2023/11/29 11:01:45;;;;;;;8.80;6.63;;;1.70;99.90;;;;;;6278534;22;20375;-81
2023/11/29 11:04:35;;;;;;;8.68;5.65;;;1.50;99.90;;;;;;6275959;22;20035;-82
2023/11/29 11:07:43;;;;;;;8.57;6.22;;;1.40;99.90;;;;;;6278356;22;20027;-82
2023/11/29 11:10:31;;;;;;;7.80;5.97;;;1.30;99.90;;;;;;6275637;22;20079;-82
2023/11/29 11:13:35;;;;;;;9.23;6.65;;;1.20;99.90;;;;;;6280860;22;20028;-81
2023/11/29 11:16:23;;;;;;;7.85;5.93;;;1.30;99.90;;;;;;6276174;22;20051;-82
2023/11/29 11:19:11;;;;;;;6.90;5.78;;;1.30;99.90;;;;;;6277204;22;20330;-82
2023/11/29 11:22:02;;;;;;;6.15;5.40;;;1.40;99.90;;;;;;6274190;22;20537;-82
2023/11/29 11:25:05;;;;;;;8.02;5.60;;;2.10;99.90;;;;;;6275851;22;20028;-79
2023/11/29 11:27:53;;;;;;;6.68;4.60;;;3.70;99.90;;;;;;6275822;22;20028;-80
2023/11/29 11:30:48;;;;;;;6.38;4.60;;;4.50;99.90;;;;;;6277809;22;20095;-83
2023/11/29 11:33:51;;;;;;;7.25;4.78;;;4.60;99.90;;;;;;6280794;22;20035;-82
2023/11/29 11:36:40;;;;;;;6.10;4.38;;;4.80;99.90;;;;;;6276850;22;20410;-82
2023/11/29 11:39:27;;;;;;;6.53;4.50;;;5.20;99.90;;;;;;6276386;22;20055;-82
2023/11/29 11:42:14;;;;;;;5.05;3.83;;;5.10;99.90;;;;;;6278914;22;20122;-78
2023/11/29 11:45:04;;;;;;;4.13;3.63;;;5.40;99.90;;;;;;6279367;22;20081;-82
2023/11/29 11:47:52;;;;;;;4.32;3.92;;;5.70;99.90;;;;;;6278736;22;20302;-82
2023/11/29 11:50:40;;;;;;;4.93;4.10;;;5.80;99.90;;;;;;6279066;22;20085;-82
2023/11/29 11:53:27;;;;;;;4.97;4.05;;;5.00;99.90;;;;;;6278095;22;20290;-82
2023/11/29 11:56:19;;;;;;;10.15;4.30;;;4.50;99.90;;;;;;6276215;22;20027;-83
2023/11/29 11:59:08;;;;;;;4.32;3.75;;;5.20;99.90;;;;;;6276555;22;20115;-82
2023/11/29 12:01:56;;;;;;;6.10;4.22;;;4.70;99.90;;;;;;6276879;22;20046;-82
2023/11/29 12:04:45;;;;;;;5.18;4.07;;;4.70;99.90;;;;;;6274761;22;20024;-81
2023/11/29 12:07:39;;;;;;;5.07;4.05;;;4.40;99.90;;;;;;6276479;22;20027;-84
2023/11/29 12:10:26;;;;;;;6.72;3.80;;;4.10;99.90;;;;;;6275765;22;20079;-82
2023/11/29 12:13:15;;;;;;;5.95;4.07;;;3.60;99.90;;;;;;6277796;22;20103;-82
2023/11/29 12:16:16;;;;;;;4.10;3.65;;;3.30;99.90;;;;;;6272519;22;20024;-82
2023/11/29 12:19:08;;;;;;;7.38;4.88;;;2.90;99.90;;;;;;6276799;22;20024;-82
2023/11/29 12:22:02;;;;;;;4.75;4.15;;;2.70;99.90;;;;;;6277158;22;20089;-82
2023/11/29 12:24:50;;;;;;;5.35;4.45;;;2.90;99.90;;;;;;6278750;22;20023;-83
2023/11/29 12:27:45;;;;;;;8.20;4.10;;;3.30;99.90;;;;;;6278821;22;20399;-83
2023/11/29 12:30:33;;;;;;;6.28;4.43;;;3.50;99.90;;;;;;6277066;22;20395;-82
2023/11/29 12:33:21;;;;;;;4.40;3.95;;;3.10;99.90;;;;;;6278533;22;20098;-82
2023/11/29 12:36:09;;;;;;;5.45;4.28;;;2.90;99.90;;;;;;6283801;22;20026;-82
2023/11/29 12:39:03;;;;;;;5.90;4.03;;;2.70;99.90;;;;;;6285985;22;20137;-82
2023/11/29 12:41:51;;;;;;;;;;;2.50;99.90;;;;;;6280832;22;20243;-83
2023/11/29 12:44:39;;;;;;;5.00;4.13;;;2.30;99.90;;;;;;6276855;22;19919;-84
2023/11/29 12:47:30;;;;;;;8.75;4.28;;;2.10;99.90;;;;;;6279391;22;20024;-83
2023/11/29 12:50:18;;;;;;;7.63;4.97;;;2.10;99.90;;;;;;6275576;22;20023;-82
2023/11/29 12:53:06;;;;;;;6.30;4.47;;;2.00;99.90;;;;;;6278070;22;20106;-82
2023/11/29 12:55:55;;;;;;;7.22;4.93;;;1.90;99.90;;;;;;6276231;22;20019;-82
2023/11/29 12:58:45;;;;;;;10.57;5.72;;;1.80;99.90;;;;;;6278035;22;20023;-82
2023/11/29 13:01:33;;;;;;;6.70;4.72;;;1.70;99.90;;;;;;6276827;22;20020;-81
2023/11/29 13:04:22;;;;;;;7.10;4.80;;;1.70;99.90;;;;;;6275851;22;20035;-81
2023/11/29 13:07:10;;;;;;;8.10;4.65;;;1.60;99.90;;;;;;6276178;22;20117;-82
2023/11/29 13:10:00;;;;;;;6.63;4.75;;;1.60;99.90;;;;;;6274469;22;20023;-78
2023/11/29 13:12:47;;;;;;;8.13;4.50;;;1.70;99.90;;;;;;6274955;22;20361;-81
2023/11/29 13:15:37;;;;;;;7.43;4.78;;;1.70;99.90;;;;;;6276262;22;20023;-81
2023/11/29 13:18:27;;;;;;;7.18;5.32;;;1.80;99.90;;;;;;6274808;22;20019;-83
2023/11/29 13:21:15;;;;;;;10.93;5.82;;;1.80;99.90;;;;;;6274481;22;20094;-79
2023/11/29 13:24:06;;;;;;;9.25;4.85;;;1.90;99.90;;;;;;6277455;22;20046;-82
2023/11/29 13:26:56;;;;;;;4.47;3.90;;;1.90;99.90;;;;;;6277586;22;20287;-82
2023/11/29 13:29:43;;;;;;;5.95;4.05;;;1.90;99.90;;;;;;6275479;22;20107;-82
2023/11/29 13:32:31;;;;;;;7.03;3.78;;;1.90;99.90;;;;;;6272066;22;20028;-83
2023/11/29 13:35:18;;;;;;;6.05;4.25;;;2.00;99.90;;;;;;6275554;22;20035;-85
2023/11/29 13:38:06;;;;;;;7.05;4.15;;;2.10;99.90;;;;;;6272395;22;20024;-85
2023/11/29 13:40:54;;;;;;;5.95;3.70;;;2.20;99.90;;;;;;6277090;22;20214;-83
2023/11/29 13:43:43;;;;;;;4.80;3.90;;;2.40;99.90;;;;;;6274584;22;20366;-84
2023/11/29 13:46:32;;;;;;;4.93;3.53;;;2.70;99.90;;;;;;6274084;22;20085;-84
2023/11/29 13:49:23;;;;;;;5.78;3.75;;;2.80;99.90;;;;;;6278930;22;20020;-85
2023/11/29 13:52:11;;;;;;;5.55;3.60;;;3.30;99.90;;;;;;6278175;22;20024;-85
2023/11/29 13:55:11;;;;;;;4.20;3.30;;;4.20;99.90;;;;;;6274687;22;20034;-85
2023/11/29 13:58:00;;;;;;;3.50;2.83;;;5.70;99.90;;;;;;6277155;22;20024;-84
2023/11/29 14:00:50;;;;;;;8.27;2.70;;;6.60;99.90;;;;;;6276094;22;20034;-81
2023/11/29 14:03:37;;;;;;;7.55;3.10;;;7.90;95.80;;;;;;6277629;22;20420;-85
2023/11/29 14:06:31;;;;;;;4.18;3.15;;;7.20;94.70;;;;;;6276355;22;20386;-86
2023/11/29 14:09:21;;;;;;;4.28;2.90;;;6.30;96.60;;;;;;6275708;22;20106;-86
2023/11/29 14:12:09;;;;;;;8.18;3.38;;;5.20;99.30;;;;;;6274113;22;20103;-81
2023/11/29 14:14:56;;;;;;;3.90;3.33;;;4.10;99.90;;;;;;6277419;22;20019;-86
2023/11/29 14:17:44;;;;;;;6.40;3.00;;;3.80;99.90;;;;;;6274402;22;20024;-85
2023/11/29 14:20:34;;;;;;;3.67;2.70;;;3.60;99.90;;;;;;6273999;22;20038;-85
2023/11/29 14:23:22;;;;;;;6.30;3.17;;;3.60;99.90;;;;;;6273653;22;20031;-82
2023/11/29 14:42:21;;;;;;;4.97;3.58;;;3.40;99.90;;;;;;6275494;22;20004;-84
2023/11/29 14:45:09;;;;;;;3.78;3.20;;;3.30;99.90;;;;;;6273664;22;20128;-87
2023/11/29 14:47:59;;;;;;;5.85;3.80;;;3.20;99.90;;;;;;6284108;22;20020;-85